Terminal Aerodrome Forecast
Issued by NWS Denver/Boulder, CO

Home | Current Version | Previous Version | Text Only | Print | Product List | Glossary On
Versions: 1 2 3 4 5 6 7 8 9 10 11 12 13 14 15 16 17 18 19 20 21 22 23 24 25 26 27 28 29 30 31 32 33 34 35
000
FTUS45 KBOU 211754
TAFDEN
TAF
KDEN 211754Z 2118/2224 03012KT P6SM FEW090 SCT150
     FM220200 01006KT P6SM SCT090 SCT150 BKN200
     FM220500 VRB05KT P6SM FEW090 SCT150 BKN200
     FM220800 35005KT P6SM SCT020 SCT120
     FM221100 01005KT P6SM SCT008 BKN020
     FM221600 12006KT P6SM FEW020 SCT120
     FM221900 15012KT P6SM FEW090 SCT150=

USA.gov is the U.S. government's official web portal to all federal, state and local government web resources and services.